Arbúcies





Hora UTC 20:00
Temperatura 1.6 ºC
Humitat 92.9 %
Pressió 1004.0 hPa
Pluja 0.0 mm
Velocitat vent 7.2 km/h
Direcció vent SSW
Radiació solar 0.0 W/m²

Dades diàries 2021-11-27



Hora UTC (hivern +1h; estiu +2h)
Temperatura (ºC) Humitat (%) Pressió (hPa) Velocitat vent (km/h) Precipitació (mm) Radiació solar (W/m²)
Hora UTC Aire Humitat Pressió Vel. Dir. Vel. Max Dir. Intent. màx 5 min. Rad. Sol.
00:05 2.7 96.3 1005.0 5.1 WSW 8.8 SW 0.0 0.0
00:10 2.6 96.1 1004.0 3.4 WSW 7.4 SW 0.0 0.0
00:15 2.7 96.3 1005.0 0.6 WSW 2.8 SSW 0.0 0.0
00:20 2.7 96.1 1004.0 1.5 NW 3.5 NNW 0.0 0.0
00:25 2.7 96.1 1004.0 1.4 SW 5.3 SW 0.0 0.0
00:30 2.7 96.0 1004.0 3.3 SW 10.2 WSW 0.0 0.0
00:35 2.9 96.3 1005.0 5.3 WSW 14.1 SW 0.0 0.0
00:40 2.9 96.1 1004.0 5.0 WSW 13.4 SSW 0.0 0.0
00:45 3.2 96.1 1004.0 6.3 SW 15.2 SSW 0.0 0.0
00:50 3.3 95.7 1004.0 1.9 NW 4.9 NW 0.0 0.0
00:55 3.1 95.3 1004.0 3.3 WSW 6.4 WSW 0.0 0.0
01:00 3.2 95.5 1004.0 4.8 SW 10.2 SSW 0.0 0.0
01:05 3.1 95.1 1004.0 4.3 WSW 8.5 WSW 0.0 0.0
01:10 3.0 95.1 1004.0 5.0 WSW 11.6 WNW 0.0 0.0
01:15 3.2 95.2 1004.0 6.2 WSW 16.6 WSW 0.0 0.0
01:20 3.6 95.0 1003.0 3.1 WSW 8.1 W 0.0 0.0
01:25 3.8 93.9 1003.0 4.4 SW 10.2 SW 0.0 0.0
01:30 4.1 92.7 1003.0 5.9 SSW 16.2 SSE 0.0 0.0
01:35 4.3 90.0 1004.0 5.5 S 12.7 SSW 0.0 0.0
01:40 4.5 86.1 1003.0 3.7 S 7.8 S 0.0 0.0
01:45 4.6 83.4 1003.0 4.8 SW 20.5 WNW 0.0 0.6
01:50 4.9 79.1 1003.0 7.0 SSW 19.1 NW 0.0 1.7
01:55 4.9 78.3 1003.0 12.2 SW 24.7 S 0.0 1.9
02:00 4.8 77.6 1003.0 10.0 SW 26.1 SSW 0.0 2.0
02:05 4.8 76.7 1003.0 6.4 NW 19.4 NNW 0.0 1.8
02:10 5.2 73.4 1003.0 7.4 WNW 20.1 WNW 0.0 2.8
02:15 5.2 72.5 1002.0 5.1 SW 15.2 SW 0.0 1.7
02:20 5.1 73.2 1002.0 9.9 WSW 28.9 SSW 0.0 1.9
02:25 5.0 73.5 1002.0 14.9 SW 31.8 SW 0.0 2.4
02:30 5.0 73.2 1002.0 10.6 SSW 30.0 SSW 0.0 1.6
02:35 4.9 72.9 1003.0 9.9 SSW 24.0 SW 0.0 1.5
02:40 4.9 72.5 1002.0 14.2 SW 30.3 SSW 0.0 1.8
02:45 4.9 72.4 1002.0 10.1 SW 24.7 SW 0.0 1.6
02:50 4.9 72.5 1002.0 10.9 SW 31.0 SSW 0.0 1.6
02:55 4.9 72.4 1002.0 12.9 SW 36.0 SSW 0.0 1.8
03:00 5.0 72.2 1002.0 16.2 SW 35.6 SSW 0.0 1.9
03:05 4.8 73.0 1002.0 11.9 SW 25.8 SSW 0.0 1.2
03:10 4.7 73.5 1001.0 15.5 SW 29.6 SSW 0.0 1.5
03:15 4.6 74.1 1001.0 13.2 SW 31.4 SW 0.0 1.1
03:20 4.5 74.8 1001.0 16.4 SW 31.8 SW 0.0 1.0
03:25 4.4 75.2 1001.0 16.3 SW 39.2 SW 0.0 1.0
03:30 4.3 75.8 1001.0 14.7 SW 33.2 SSW 0.0 1.1
03:35 4.2 75.9 1001.0 13.0 SW 35.6 SW 0.0 0.7
03:40 4.1 75.9 1001.0 14.0 SW 38.8 SW 0.0 0.6
03:45 4.1 76.1 1001.0 14.3 SW 31.4 SW 0.0 0.7
03:50 4.0 76.0 1001.0 15.9 SSW 30.3 W 0.0 0.6
03:55 4.0 75.7 1001.0 15.4 SSW 30.0 S 0.0 0.8
04:00 4.0 75.9 1001.0 13.7 SSW 26.8 SSW 0.0 0.4
04:05 3.8 76.3 1002.0 14.6 SW 29.3 SSW 0.0 0.1
04:10 3.9 76.0 1001.0 16.3 SSW 31.0 SW 0.0 0.1
04:15 3.8 76.2 1001.0 11.3 SW 25.4 SW 0.0 0.0
04:20 3.7 77.0 1001.0 13.0 SW 37.0 SW 0.0 0.0
04:25 3.6 77.0 1001.0 16.9 SW 34.9 SW 0.0 0.0
04:30 3.6 76.7 1001.0 17.6 SW 33.5 SW 0.0 0.1
04:35 3.6 76.7 1001.0 14.9 SSW 37.4 SSW 0.0 0.0
04:40 3.6 76.6 1001.0 14.2 SSW 26.8 SSW 0.0 0.0
04:45 3.7 76.0 1001.0 13.1 SSW 40.6 SSW 0.0 0.1
04:50 3.8 75.0 1000.0 13.6 SSW 29.6 SW 0.0 0.0
04:55 3.9 73.5 1000.0 12.2 SSW 26.1 SW 0.0 0.2
05:00 3.9 73.3 1000.0 12.1 SSW 24.0 SSW 0.0 0.0
05:05 3.9 73.0 1001.0 12.5 SSW 34.6 SW 0.0 0.1
05:10 3.9 73.0 1000.0 12.6 SSW 27.2 SSW 0.0 0.0
05:15 4.0 72.7 1000.0 14.3 SSW 27.2 SSW 0.0 0.0
05:20 4.0 72.5 1000.0 12.2 SSW 24.7 S 0.0 0.0
05:25 4.0 72.4 1000.0 14.2 SSW 33.9 SSW 0.0 0.0
05:30 4.0 72.5 1000.0 13.5 SW 31.0 SW 0.0 0.0
05:35 4.0 72.3 1000.0 19.5 SW 44.8 SW 0.0 0.0
05:40 4.1 72.0 1000.0 17.6 SW 38.1 SW 0.0 0.0
05:45 4.1 72.0 999.0 21.1 SW 40.6 SSW 0.0 0.0
05:50 4.1 72.0 1000.0 18.9 SW 39.9 SW 0.0 0.0
05:55 4.2 72.1 999.0 17.2 SW 32.1 SW 0.0 0.0
06:00 4.2 71.9 999.0 18.0 SW 32.8 SSW 0.0 0.0
06:05 4.3 71.2 1000.0 18.8 SW 43.4 SSW 0.0 0.0
06:10 4.3 71.1 999.0 17.0 SW 37.0 SW 0.0 0.0
06:15 4.3 71.4 1000.0 17.2 SW 44.1 SW 0.0 0.0
06:20 4.2 72.0 1000.0 18.0 SW 37.0 SSW 0.0 0.0
06:25 4.2 72.2 1000.0 13.7 SW 33.5 WSW 0.0 0.0
06:30 4.2 72.4 1000.0 12.5 SW 46.6 SW 0.0 0.0
06:35 4.3 72.5 1000.0 8.9 W 27.9 SSE 0.0 0.0
06:40 4.3 72.4 1000.0 9.1 W 35.3 SSW 0.0 0.0
06:45 4.3 72.8 999.0 11.8 SW 32.1 SW 0.0 0.0
06:50 4.3 73.2 999.0 8.8 SSW 36.0 SSW 0.0 0.0
06:55 4.3 73.3 999.0 9.1 SW 26.8 SSW 0.0 0.7
07:00 4.4 73.2 999.0 10.6 SSW 29.6 SW 0.0 2.5
07:05 4.6 72.5 1000.0 11.6 SW 30.3 SSW 0.0 4.3
07:10 4.7 71.9 999.0 8.3 SW 18.3 WSW 0.0 6.6
07:15 4.9 71.1 999.0 5.6 W 16.6 SW 0.0 9.0
07:20 5.1 70.6 999.0 5.7 WSW 28.9 WSW 0.0 11.2
07:25 5.3 69.6 999.0 9.5 SW 25.0 WNW 0.0 13.5
07:30 5.4 69.3 999.0 10.1 SW 25.0 SW 0.0 15.2
07:35 5.5 69.2 999.0 8.2 WSW 21.2 SW 0.0 17.0
07:40 5.6 68.8 999.0 11.0 SW 26.8 SW 0.0 19.0
07:45 5.8 68.1 999.0 5.3 WSW 16.2 S 0.0 20.7
07:50 5.9 67.7 999.0 5.3 WSW 19.1 SW 0.0 22.2
07:55 5.9 67.8 999.0 7.0 SW 21.2 SW 0.0 23.8
08:00 6.0 67.4 999.0 8.9 SW 25.0 SSW 0.0 25.6
08:05 6.1 67.2 999.0 12.4 SW 29.3 SSW 0.0 27.1
08:10 6.2 66.9 999.0 12.7 SSW 34.6 W 0.0 28.9
08:15 6.3 66.7 999.0 6.8 S 18.7 SSW 0.0 30.9
08:20 6.5 66.3 1000.0 3.6 W 10.2 NW 0.0 34.2
08:25 6.7 65.7 1000.0 7.7 W 20.1 NW 0.0 37.2
08:30 6.9 65.4 1000.0 7.5 NW 18.3 NNE 0.0 39.9
08:35 6.9 65.2 1000.0 7.1 W 20.5 W 0.0 45.6
08:40 7.0 65.5 1000.0 5.2 NW 18.0 NNW 0.0 93.9
08:45 7.0 64.8 1000.0 6.2 W 20.5 S 0.0 66.6
08:50 7.0 65.1 1000.0 5.7 SW 18.7 WSW 0.0 87.3
08:55 6.8 65.2 1000.0 13.9 SW 37.4 SSW 0.0 125.1
09:00 6.5 66.6 1000.0 15.3 SW 42.0 WSW 0.0 190.6
09:05 6.6 67.2 1000.0 8.0 NW 22.2 NNW 0.0 265.6
09:10 6.8 66.2 1000.0 7.5 NW 33.2 W 0.0 286.4
09:15 7.0 66.0 1000.0 7.0 SSW 18.7 SSW 0.0 296.2
09:20 7.2 65.1 1000.0 8.8 SSW 30.3 SSW 0.0 306.1
09:25 7.1 65.1 1000.0 7.7 SW 21.2 SSW 0.0 317.3
09:30 7.4 64.8 1001.0 5.2 NW 19.4 SSW 0.0 325.6
09:35 7.6 64.0 1000.0 5.8 NNW 16.6 NNE 0.0 334.1
09:40 7.7 63.7 1000.0 7.1 NW 16.2 NW 0.0 342.4
09:45 7.9 63.0 1000.0 7.7 NNW 24.0 N 0.0 350.7
09:50 7.9 62.5 1000.0 7.9 NW 20.5 NW 0.0 359.9
09:55 8.2 61.9 1000.0 9.0 NNW 20.8 NW 0.0 368.3
10:00 8.5 61.7 1001.0 6.8 SW 19.1 NW 0.0 376.1
10:05 8.7 60.2 1000.0 6.7 NW 16.9 N 0.0 385.4
10:10 8.6 60.3 1000.0 3.9 WSW 13.8 W 0.0 394.2
10:15 8.8 58.6 1000.0 9.9 SW 30.0 SW 0.0 411.5
10:20 8.7 59.2 1000.0 8.9 SW 24.0 WSW 0.0 419.3
10:25 8.8 59.0 1000.0 12.7 SW 28.6 SSW 0.0 416.7
10:30 8.9 59.3 1001.0 5.9 W 19.1 WNW 0.0 421.6
10:35 8.9 59.0 1000.0 8.8 NW 24.0 NNW 0.0 427.7
10:40 8.8 59.1 1000.0 9.5 NW 27.5 NNW 0.0 437.7
10:45 9.0 59.1 1000.0 7.5 WNW 19.4 WNW 0.0 443.5
10:50 9.2 58.2 1000.0 12.2 WSW 27.2 SSW 0.0 453.9
10:55 9.2 58.3 1000.0 11.3 SW 32.8 SSW 0.0 468.0
11:00 9.3 58.2 1001.0 10.3 SW 25.4 SSW 0.0 498.2
11:05 9.4 56.9 1000.0 15.7 SW 29.6 SW 0.0 522.1
11:10 9.5 57.2 1000.0 9.7 SW 24.7 SW 0.0 480.8
11:15 9.8 56.0 1000.0 9.0 SW 25.4 SSW 0.0 549.5
11:20 10.1 55.1 1000.0 8.7 WSW 25.8 SW 0.0 557.5
11:25 10.2 55.0 1000.0 8.2 WNW 23.3 N 0.0 531.4
11:30 10.2 54.7 1000.0 9.1 SW 29.3 SW 0.0 493.5
11:35 10.2 54.5 999.0 7.4 SW 18.3 WSW 0.0 506.3
11:40 9.9 55.4 1000.0 11.6 SW 29.6 SSW 0.0 358.4
11:45 10.0 55.7 1000.0 9.4 SW 24.7 SSW 0.0 266.2
11:50 9.3 56.9 1000.0 8.2 WNW 28.2 NW 0.0 236.5
11:55 9.1 57.6 1000.0 8.7 WSW 20.8 NW 0.0 400.9
12:00 9.6 56.5 1000.0 12.1 SW 25.4 SW 0.0 499.0
12:05 9.9 55.6 1000.0 6.1 SW 14.5 SW 0.0 424.2
12:10 10.0 55.7 1000.0 8.3 SW 15.5 NNW 0.0 455.6
12:15 10.4 54.8 1000.0 9.8 SSW 25.8 SW 0.0 576.4
12:20 10.4 54.0 1000.0 11.4 WSW 31.0 SSW 0.0 501.2
12:25 10.1 54.1 1000.0 17.0 SW 32.5 SW 0.0 532.9
12:30 10.0 55.2 1000.0 14.0 SW 31.4 SW 0.0 581.3
12:35 10.1 54.9 1000.0 10.4 SW 22.2 SSW 0.0 474.9
12:40 9.9 55.5 999.0 14.0 SW 30.3 WSW 0.0 544.5
12:45 10.1 54.9 1000.0 12.3 SW 24.7 SSW 0.0 405.8
12:50 9.9 56.1 1000.0 13.1 WSW 27.9 SW 0.0 539.0
12:55 10.2 55.0 1000.0 12.7 SW 24.7 SW 0.0 453.4
13:00 10.0 55.7 1000.0 13.0 SW 22.6 SSW 0.0 300.4
13:05 9.5 56.7 1000.0 12.1 SW 22.2 SSW 0.0 204.5
13:10 9.3 58.1 1000.0 7.9 SW 14.5 WSW 0.0 186.4
13:15 9.2 58.5 1000.0 15.0 SW 25.4 WSW 0.0 194.5
13:20 9.3 58.4 1000.0 13.5 SW 30.0 WSW 0.0 441.2
13:25 9.9 56.2 1000.0 12.5 SW 25.8 W 0.0 434.0
13:30 10.0 55.1 1000.0 11.2 SW 26.1 SW 0.0 397.9
13:35 10.2 54.5 999.0 10.3 SW 19.4 SW 0.0 363.7
13:40 10.1 53.8 999.0 8.2 SW 15.5 SW 0.0 262.7
13:45 10.1 54.6 999.0 6.3 WSW 16.6 WSW 0.0 201.8
13:50 9.9 54.6 1000.0 6.8 WSW 12.7 WSW 0.0 177.2
13:55 9.8 55.1 1000.0 5.5 SW 9.2 SW 0.0 160.2
14:00 9.9 54.5 1000.0 5.4 SSW 9.9 SSW 0.0 155.0
14:05 9.9 54.7 999.0 7.2 SW 11.3 SW 0.0 168.6
14:10 9.9 53.2 1000.0 7.8 SSW 11.3 SW 0.0 148.9
14:15 10.0 53.5 1000.0 5.1 SW 10.2 SSW 0.0 133.5
14:20 10.0 53.2 1000.0 2.9 SW 6.0 SW 0.0 121.8
14:25 10.1 53.7 1000.0 2.0 W 7.1 SW 0.0 103.9
14:30 10.2 53.3 1001.0 3.3 SW 9.2 SW 0.0 98.3
14:35 10.1 51.7 1000.0 2.2 SW 5.3 SSW 0.0 104.7
14:40 10.1 53.0 1000.0 3.5 SW 5.6 SW 0.0 102.1
14:45 10.0 52.9 1000.0 4.2 SW 8.5 WSW 0.0 89.5
14:50 9.9 53.9 1000.0 6.0 SW 9.5 SW 0.0 78.7
14:55 9.8 55.1 1000.0 5.9 SW 12.0 SW 0.0 81.0
15:00 9.7 56.4 1001.0 4.3 SW 7.8 SSW 0.0 76.4
15:05 9.7 58.4 1000.0 3.2 SW 4.9 SW 0.0 74.7
15:10 9.6 59.0 1001.0 3.1 SW 4.9 WSW 0.0 66.6
15:15 9.5 59.1 1000.0 3.4 SSW 5.3 SSW 0.0 61.3
15:20 9.3 59.5 1000.0 1.4 S 3.9 SSW 0.0 54.7
15:25 9.3 62.0 1000.0 0.7 SW 2.1 WSW 0.0 44.5
15:30 9.1 63.6 1001.0 0.1 S 1.8 S 0.0 36.5
15:35 8.7 64.8 1001.0 0.6 ENE 2.1 NE 0.0 31.4
15:40 8.5 66.6 1000.0 1.6 SW 2.5 SW 0.0 24.8
15:45 8.3 68.5 1001.0 3.7 SSW 5.6 SW 0.0 21.7
15:50 8.0 69.0 1001.0 3.0 SSW 5.6 SW 0.0 18.0
15:55 7.8 69.6 1001.0 2.2 S 5.3 SSW 0.0 14.6
16:00 7.6 69.5 1002.0 1.7 SSW 4.6 SW 0.0 11.4
16:05 7.5 70.9 1001.0 1.5 SSW 3.2 SW 0.0 7.9
16:10 7.3 72.3 1001.0 0.7 WSW 1.8 WNW 0.0 4.5
16:15 7.1 73.6 1001.0 0.1 W 2.5 WNW 0.0 2.2
16:20 6.9 74.9 1001.0 0.2 WNW 2.5 WNW 0.0 0.7
16:25 6.8 76.3 1001.0 1.4 SW 4.6 SW 0.0 0.0
16:30 6.5 77.1 1002.0 4.6 SW 8.8 SW 0.0 0.0
16:35 6.2 78.2 1001.0 5.5 SW 8.5 SSW 0.0 0.0
16:40 6.1 78.6 1001.0 3.8 SSW 7.8 WSW 0.0 0.0
16:45 6.0 79.1 1001.0 4.1 SW 7.1 SW 0.0 0.0
16:50 6.0 79.4 1001.0 5.3 SW 7.4 SSW 0.0 0.0
16:55 5.9 79.7 1001.0 5.8 SSW 10.9 SW 0.0 0.0
17:00 5.8 79.8 1002.0 4.6 SW 6.7 SSW 0.0 0.0
17:05 5.6 80.1 1001.0 6.3 SSW 8.5 SSW 0.0 0.0
17:10 5.5 80.8 1001.0 8.3 SSW 11.3 SW 0.0 0.0
17:15 5.4 81.0 1001.0 7.6 SW 12.3 WSW 0.0 0.0
17:20 5.4 81.1 1002.0 5.9 SW 9.2 SSW 0.0 0.0
17:25 5.4 80.8 1002.0 2.4 SSW 6.4 SSW 0.0 0.0
17:30 5.3 80.4 1002.0 3.5 SW 5.3 SSW 0.0 0.0
17:35 5.1 81.1 1002.0 3.7 SSW 6.0 SW 0.0 0.0
17:40 4.9 81.6 1002.0 2.3 WSW 5.3 WSW 0.0 0.0
17:45 4.8 82.5 1002.0 3.5 SSW 6.4 SSW 0.0 0.0
17:50 4.6 83.1 1002.0 3.6 SW 5.3 WSW 0.0 0.0
17:55 4.5 83.5 1002.0 2.9 SW 4.2 SSW 0.0 0.0
18:00 4.3 84.1 1003.0 3.1 SW 4.2 WSW 0.0 0.0
18:05 4.2 84.4 1002.0 3.1 WSW 5.3 SW 0.0 0.0
18:10 4.0 84.9 1002.0 6.2 SW 8.1 SW 0.0 0.0
18:15 3.9 85.4 1002.0 4.8 SW 6.7 SW 0.0 0.0
18:20 3.7 85.8 1002.0 5.4 SW 7.8 SSW 0.0 0.0
18:25 3.7 86.5 1002.0 2.2 S 5.6 SSW 0.0 0.0
18:30 3.6 86.7 1003.0 4.0 SSW 7.1 SSW 0.0 0.0
18:35 3.4 86.9 1002.0 7.5 SW 11.6 SW 0.0 0.0
18:40 3.3 87.5 1002.0 6.9 SW 9.5 SW 0.0 0.0
18:45 3.2 88.2 1002.0 5.1 SSW 6.7 SSW 0.0 0.0
18:50 3.1 88.4 1003.0 5.6 SW 7.1 SW 0.0 0.0
18:55 2.9 88.6 1002.0 4.5 SW 6.4 WSW 0.0 0.0
19:00 2.7 89.0 1003.0 3.5 SW 5.6 SSW 0.0 0.0
19:05 2.7 89.5 1003.0 2.5 SW 4.6 SSW 0.0 0.0
19:10 2.4 89.6 1003.0 3.3 WSW 5.3 WSW 0.0 0.0
19:15 2.3 90.2 1003.0 5.1 SW 7.8 SSW 0.0 0.0
19:20 2.1 90.7 1003.0 4.6 SW 6.0 SW 0.0 0.0
19:25 2.1 91.1 1003.0 5.4 SW 6.7 SW 0.0 0.0
19:30 2.0 91.4 1004.0 2.1 WSW 4.6 SW 0.0 0.0
19:35 2.1 92.2 1003.0 2.4 NNE 4.9 SE 0.0 0.0
19:40 1.9 91.8 1003.0 3.7 SW 5.3 SSW 0.0 0.0
19:45 1.9 92.4 1003.0 4.5 SW 7.1 SW 0.0 0.0
19:50 1.8 92.3 1003.0 1.9 WSW 3.2 SW 0.0 0.0
19:55 1.7 92.4 1003.0 4.8 SW 8.1 SSW 0.0 0.0
20:00 1.6 92.9 1004.0 7.2 SSW 9.5 SSW 0.0 0.0
Màxima 10.4 96.3 1005.0 21.1 SW 46.6 SW 0.0 581.3
Mínima 1.6 51.7 999.0
Total 0.0